sensor_id;sensor_type;location;lat;lon;timestamp;pressure;altitude;pressure_sealevel;temperature;humidity
22389;BME280;11362;48.102;11.620;2023-05-19T00:00:53;95674.56;;;22.23;40.89
22389;BME280;11362;48.102;11.620;2023-05-19T00:03:19;95667.84;;;22.20;41.07
22389;BME280;11362;48.102;11.620;2023-05-19T00:05:44;95663.47;;;22.23;41.08
22389;BME280;11362;48.102;11.620;2023-05-19T00:08:10;95663.09;;;22.21;40.94
22389;BME280;11362;48.102;11.620;2023-05-19T00:10:36;95658.75;;;22.23;40.91
22389;BME280;11362;48.102;11.620;2023-05-19T00:13:02;95657.94;;;22.23;41.08
22389;BME280;11362;48.102;11.620;2023-05-19T00:15:28;95657.16;;;22.22;41.03
22389;BME280;11362;48.102;11.620;2023-05-19T00:17:53;95660.72;;;22.23;40.93
22389;BME280;11362;48.102;11.620;2023-05-19T00:20:18;95650.47;;;22.20;40.90
22389;BME280;11362;48.102;11.620;2023-05-19T00:22:44;95647.69;;;22.20;41.09
22389;BME280;11362;48.102;11.620;2023-05-19T00:25:09;95650.47;;;22.20;41.18
22389;BME280;11362;48.102;11.620;2023-05-19T00:27:34;95643.72;;;22.21;41.02
22389;BME280;11362;48.102;11.620;2023-05-19T00:29:59;95640.97;;;22.21;40.97
22389;BME280;11362;48.102;11.620;2023-05-19T00:32:25;95645.31;;;22.22;41.07
22389;BME280;11362;48.102;11.620;2023-05-19T00:34:50;95644.50;;;22.21;40.92
22389;BME280;11362;48.102;11.620;2023-05-19T00:37:15;95642.94;;;22.20;40.99
22389;BME280;11362;48.102;11.620;2023-05-19T00:39:41;95634.63;;;22.17;40.99
22389;BME280;11362;48.102;11.620;2023-05-19T00:42:06;95634.63;;;22.20;41.05
22389;BME280;11362;48.102;11.620;2023-05-19T00:44:31;95635.03;;;22.19;40.75
22389;BME280;11362;48.102;11.620;2023-05-19T00:46:57;95626.72;;;22.19;41.00
22389;BME280;11362;48.102;11.620;2023-05-19T00:49:22;95635.81;;;22.19;40.75
22389;BME280;11362;48.102;11.620;2023-05-19T00:51:47;95631.09;;;22.20;40.96
22389;BME280;11362;48.102;11.620;2023-05-19T00:54:13;95633.84;;;22.20;40.94
22389;BME280;11362;48.102;11.620;2023-05-19T00:56:39;95625.56;;;22.20;40.63
22389;BME280;11362;48.102;11.620;2023-05-19T00:59:05;95628.72;;;22.18;41.00
22389;BME280;11362;48.102;11.620;2023-05-19T01:01:30;95624.75;;;22.16;41.05
22389;BME280;11362;48.102;11.620;2023-05-19T01:03:55;95620.03;;;22.16;40.77
22389;BME280;11362;48.102;11.620;2023-05-19T01:06:21;95621.19;;;22.19;40.88
22389;BME280;11362;48.102;11.620;2023-05-19T01:08:46;95620.41;;;22.18;41.04
22389;BME280;11362;48.102;11.620;2023-05-19T01:11:12;95626.72;;;22.19;40.94
22389;BME280;11362;48.102;11.620;2023-05-19T01:13:37;95625.94;;;22.22;41.22
22389;BME280;11362;48.102;11.620;2023-05-19T01:16:28;95628.31;;;22.20;41.00
22389;BME280;11362;48.102;11.620;2023-05-19T01:19:00;95621.19;;;22.19;40.83
22389;BME280;11362;48.102;11.620;2023-05-19T01:21:51;95617.25;;;22.20;40.95
22389;BME280;11362;48.102;11.620;2023-05-19T01:27:22;95620.81;;;22.17;40.98
22389;BME280;11362;48.102;11.620;2023-05-19T01:32:47;95622.38;;;22.18;40.93
22389;BME280;11362;48.102;11.620;2023-05-19T01:35:14;95623.94;;;22.19;40.96
22389;BME280;11362;48.102;11.620;2023-05-19T01:37:41;95625.56;;;22.20;40.98
22389;BME280;11362;48.102;11.620;2023-05-19T01:40:07;95619.59;;;22.18;40.87
22389;BME280;11362;48.102;11.620;2023-05-19T01:42:32;95623.94;;;22.19;40.88
22389;BME280;11362;48.102;11.620;2023-05-19T01:44:58;95619.22;;;22.16;40.99
22389;BME280;11362;48.102;11.620;2023-05-19T01:47:24;95626.72;;;22.19;41.01
22389;BME280;11362;48.102;11.620;2023-05-19T01:49:49;95631.47;;;22.18;40.86
22389;BME280;11362;48.102;11.620;2023-05-19T01:52:14;95626.72;;;22.19;40.81
22389;BME280;11362;48.102;11.620;2023-05-19T01:54:40;95629.47;;;22.19;40.92
22389;BME280;11362;48.102;11.620;2023-05-19T02:05:30;95621.97;;;22.19;41.01
22389;BME280;11362;48.102;11.620;2023-05-19T02:08:12;95625.16;;;22.18;40.78
22389;BME280;11362;48.102;11.620;2023-05-19T02:10:40;95625.56;;;22.20;41.19
22389;BME280;11362;48.102;11.620;2023-05-19T02:13:07;95615.66;;;22.19;40.96
22389;BME280;11362;48.102;11.620;2023-05-19T02:15:40;95620.03;;;22.20;41.03
22389;BME280;11362;48.102;11.620;2023-05-19T02:18:08;95622.78;;;22.20;41.01
22389;BME280;11362;48.102;11.620;2023-05-19T02:20:34;95601.44;;;22.17;40.72
22389;BME280;11362;48.102;11.620;2023-05-19T02:22:59;95614.50;;;22.20;40.99
22389;BME280;11362;48.102;11.620;2023-05-19T02:25:24;95607.34;;;22.19;40.80
22389;BME280;11362;48.102;11.620;2023-05-19T02:27:51;95602.25;;;22.17;40.97
22389;BME280;11362;48.102;11.620;2023-05-19T02:30:16;95604.59;;;22.19;40.91
22389;BME280;11362;48.102;11.620;2023-05-19T02:32:41;95607.34;;;22.19;40.67
22389;BME280;11362;48.102;11.620;2023-05-19T02:35:07;95611.31;;;22.18;40.94
22389;BME280;11362;48.102;11.620;2023-05-19T02:37:32;95607.34;;;22.19;40.83
22389;BME280;11362;48.102;11.620;2023-05-19T02:39:57;95602.63;;;22.19;41.01
22389;BME280;11362;48.102;11.620;2023-05-19T02:42:23;95595.13;;;22.16;40.87
22389;BME280;11362;48.102;11.620;2023-05-19T02:44:48;95596.28;;;22.19;40.83
22389;BME280;11362;48.102;11.620;2023-05-19T02:47:14;95601.81;;;22.19;41.02
22389;BME280;11362;48.102;11.620;2023-05-19T02:49:39;95604.59;;;22.19;40.94
22389;BME280;11362;48.102;11.620;2023-05-19T02:52:05;95604.59;;;22.19;41.05
22389;BME280;11362;48.102;11.620;2023-05-19T02:54:32;95598.28;;;22.18;40.96
22389;BME280;11362;48.102;11.620;2023-05-19T02:56:58;95591.56;;;22.16;41.06
22389;BME280;11362;48.102;11.620;2023-05-19T02:59:23;95606.19;;;22.20;41.12
22389;BME280;11362;48.102;11.620;2023-05-19T03:01:51;95599.84;;;22.19;41.10
22389;BME280;11362;48.102;11.620;2023-05-19T03:04:17;95593.94;;;22.17;41.03
22389;BME280;11362;48.102;11.620;2023-05-19T03:06:42;95594.72;;;22.18;40.85
22389;BME280;11362;48.102;11.620;2023-05-19T03:09:07;95597.09;;;22.16;40.95
22389;BME280;11362;48.102;11.620;2023-05-19T03:11:32;95591.16;;;22.17;40.72
22389;BME280;11362;48.102;11.620;2023-05-19T03:13:58;95594.31;;;22.16;40.85
22389;BME280;11362;48.102;11.620;2023-05-19T03:16:23;95596.28;;;22.19;41.05
22389;BME280;11362;48.102;11.620;2023-05-19T03:18:48;95601.44;;;22.17;41.05
22389;BME280;11362;48.102;11.620;2023-05-19T03:21:13;95593.13;;;22.17;40.94
22389;BME280;11362;48.102;11.620;2023-05-19T03:23:39;95595.91;;;22.17;41.01
22389;BME280;11362;48.102;11.620;2023-05-19T03:26:04;95598.28;;;22.15;40.80
22389;BME280;11362;48.102;11.620;2023-05-19T03:28:29;95605.41;;;22.16;41.06
22389;BME280;11362;48.102;11.620;2023-05-19T03:30:55;95598.28;;;22.15;40.92
22389;BME280;11362;48.102;11.620;2023-05-19T03:33:20;95594.31;;;22.16;40.92
22389;BME280;11362;48.102;11.620;2023-05-19T03:35:45;95595.13;;;22.16;40.99
22389;BME280;11362;48.102;11.620;2023-05-19T03:38:11;95590.00;;;22.15;40.96
22389;BME280;11362;48.102;11.620;2023-05-19T03:40:36;95594.31;;;22.16;41.04
22389;BME280;11362;48.102;11.620;2023-05-19T03:43:02;95587.22;;;22.15;40.88
22389;BME280;11362;48.102;11.620;2023-05-19T03:45:27;95579.31;;;22.17;41.01
22389;BME280;11362;48.102;11.620;2023-05-19T03:47:52;95576.97;;;22.15;41.17
22389;BME280;11362;48.102;11.620;2023-05-19T03:50:18;95580.91;;;22.11;40.78
22389;BME280;11362;48.102;11.620;2023-05-19T03:52:43;95592.38;;;22.16;40.79
22389;BME280;11362;48.102;11.620;2023-05-19T03:55:09;95584.06;;;22.13;40.89
22389;BME280;11362;48.102;11.620;2023-05-19T03:57:34;95586.03;;;22.12;41.16
22389;BME280;11362;48.102;11.620;2023-05-19T03:59:59;95588.41;;;22.14;41.03
22389;BME280;11362;48.102;11.620;2023-05-19T04:02:25;95590.00;;;22.15;41.07
22389;BME280;11362;48.102;11.620;2023-05-19T04:04:50;95584.06;;;22.16;40.93
22389;BME280;11362;48.102;11.620;2023-05-19T04:07:15;95588.78;;;22.16;41.16
22389;BME280;11362;48.102;11.620;2023-05-19T04:09:41;95584.47;;;22.15;40.97
22389;BME280;11362;48.102;11.620;2023-05-19T04:12:07;95585.25;;;22.15;40.98
22389;BME280;11362;48.102;11.620;2023-05-19T04:14:32;95586.84;;;22.16;41.14
22389;BME280;11362;48.102;11.620;2023-05-19T04:16:57;95581.69;;;22.15;41.03
22389;BME280;11362;48.102;11.620;2023-05-19T04:19:22;95582.88;;;22.14;41.00
22389;BME280;11362;48.102;11.620;2023-05-19T04:21:48;95588.78;;;22.16;40.97
22389;BME280;11362;48.102;11.620;2023-05-19T04:24:13;95578.53;;;22.16;41.08
22389;BME280;11362;48.102;11.620;2023-05-19T04:26:38;95580.88;;;22.14;40.99
22389;BME280;11362;48.102;11.620;2023-05-19T04:29:04;95584.84;;;22.17;40.92
22389;BME280;11362;48.102;11.620;2023-05-19T04:31:29;95582.06;;;22.17;41.04
22389;BME280;11362;48.102;11.620;2023-05-19T04:33:55;95580.88;;;22.14;40.88
22389;BME280;11362;48.102;11.620;2023-05-19T04:36:20;95582.88;;;22.14;40.97
22389;BME280;11362;48.102;11.620;2023-05-19T04:38:46;95580.50;;;22.16;40.86
22389;BME280;11362;48.102;11.620;2023-05-19T04:41:11;95591.56;;;22.16;41.03
22389;BME280;11362;48.102;11.620;2023-05-19T04:43:37;95586.03;;;22.16;40.88
22389;BME280;11362;48.102;11.620;2023-05-19T04:46:03;95589.59;;;22.16;40.93
22389;BME280;11362;48.102;11.620;2023-05-19T04:48:28;95588.03;;;22.15;40.68
22389;BME280;11362;48.102;11.620;2023-05-19T04:50:53;95584.06;;;22.16;40.94
22389;BME280;11362;48.102;11.620;2023-05-19T04:53:18;95577.72;;;22.16;40.92
22389;BME280;11362;48.102;11.620;2023-05-19T04:55:44;95569.03;;;22.17;40.77
22389;BME280;11362;48.102;11.620;2023-05-19T04:58:09;95574.56;;;22.17;40.76
22389;BME280;11362;48.102;11.620;2023-05-19T05:00:36;95567.44;;;22.20;41.14
22389;BME280;11362;48.102;11.620;2023-05-19T05:03:01;95572.16;;;22.23;41.11
22389;BME280;11362;48.102;11.620;2023-05-19T05:05:26;95561.09;;;22.23;41.43
22389;BME280;11362;48.102;11.620;2023-05-19T05:07:52;95557.94;;;22.24;41.04
22389;BME280;11362;48.102;11.620;2023-05-19T05:10:17;95559.50;;;22.25;41.19
22389;BME280;11362;48.102;11.620;2023-05-19T05:12:42;95561.88;;;22.27;41.20
22389;BME280;11362;48.102;11.620;2023-05-19T05:15:08;95565.06;;;22.25;41.29
22389;BME280;11362;48.102;11.620;2023-05-19T05:17:34;95568.19;;;22.27;41.34
22389;BME280;11362;48.102;11.620;2023-05-19T05:20:00;95564.25;;;22.28;41.37
22389;BME280;11362;48.102;11.620;2023-05-19T05:22:26;95563.47;;;22.28;41.39
22389;BME280;11362;48.102;11.620;2023-05-19T05:24:52;95559.09;;;22.30;41.54
22389;BME280;11362;48.102;11.620;2023-05-19T05:27:17;95555.53;;;22.33;42.11
22389;BME280;11362;48.102;11.620;2023-05-19T05:29:43;95555.50;;;22.40;43.13
22389;BME280;11362;48.102;11.620;2023-05-19T05:32:08;95557.91;;;22.42;43.02
22389;BME280;11362;48.102;11.620;2023-05-19T05:34:33;95553.94;;;22.43;43.47
22389;BME280;11362;48.102;11.620;2023-05-19T05:36:59;95559.09;;;22.44;43.98
22389;BME280;11362;48.102;11.620;2023-05-19T05:39:24;95561.84;;;22.44;43.80
22389;BME280;11362;48.102;11.620;2023-05-19T05:41:49;95562.25;;;22.43;43.93
22389;BME280;11362;48.102;11.620;2023-05-19T05:44:14;95564.22;;;22.42;44.01
22389;BME280;11362;48.102;11.620;2023-05-19T05:46:40;95580.44;;;22.44;44.16
22389;BME280;11362;48.102;11.620;2023-05-19T05:49:05;95575.25;;;22.46;44.17
22389;BME280;11362;48.102;11.620;2023-05-19T05:51:31;95570.13;;;22.48;43.80
22389;BME280;11362;48.102;11.620;2023-05-19T05:53:58;95573.69;;;22.48;43.97
22389;BME280;11362;48.102;11.620;2023-05-19T05:56:24;95574.47;;;22.49;44.06
22389;BME280;11362;48.102;11.620;2023-05-19T05:58:49;95578.00;;;22.49;43.82
22389;BME280;11362;48.102;11.620;2023-05-19T06:01:15;95574.06;;;22.50;44.25
22389;BME280;11362;48.102;11.620;2023-05-19T06:03:41;95570.91;;;22.52;43.95
22389;BME280;11362;48.102;11.620;2023-05-19T06:06:06;95568.13;;;22.52;44.49
22389;BME280;11362;48.102;11.620;2023-05-19T06:08:32;95575.22;;;22.53;44.40
22389;BME280;11362;48.102;11.620;2023-05-19T06:10:58;95564.56;;;22.51;44.39
22389;BME280;11362;48.102;11.620;2023-05-19T06:13:23;95563.78;;;22.51;44.39
22389;BME280;11362;48.102;11.620;2023-05-19T06:15:49;95566.16;;;22.49;44.59
22389;BME280;11362;48.102;11.620;2023-05-19T06:18:14;95568.13;;;22.52;44.90
22389;BME280;11362;48.102;11.620;2023-05-19T06:20:40;95569.69;;;22.53;45.04
22389;BME280;11362;48.102;11.620;2023-05-19T06:23:05;95567.72;;;22.53;44.96
22389;BME280;11362;48.102;11.620;2023-05-19T06:25:30;95566.13;;;22.56;44.99
22389;BME280;11362;48.102;11.620;2023-05-19T06:27:56;95565.72;;;22.57;45.12
22389;BME280;11362;48.102;11.620;2023-05-19T06:30:21;95560.97;;;22.58;45.15
22389;BME280;11362;48.102;11.620;2023-05-19T06:32:46;95561.75;;;22.58;45.11
22389;BME280;11362;48.102;11.620;2023-05-19T06:35:11;95558.97;;;22.58;45.13
22389;BME280;11362;48.102;11.620;2023-05-19T06:37:37;95559.41;;;22.57;45.30
22389;BME280;11362;48.102;11.620;2023-05-19T06:40:02;95570.47;;;22.57;45.47
22389;BME280;11362;48.102;11.620;2023-05-19T06:42:27;95564.13;;;22.56;45.31
22389;BME280;11362;48.102;11.620;2023-05-19T06:44:54;95564.94;;;22.57;44.92
22389;BME280;11362;48.102;11.620;2023-05-19T06:47:19;95567.31;;;22.55;44.98
22389;BME280;11362;48.102;11.620;2023-05-19T06:49:45;95564.94;;;22.57;45.18
22389;BME280;11362;48.102;11.620;2023-05-19T06:52:10;95570.06;;;22.58;45.42
22389;BME280;11362;48.102;11.620;2023-05-19T06:54:36;95570.84;;;22.59;45.43
22389;BME280;11362;48.102;11.620;2023-05-19T06:57:01;95568.47;;;22.61;45.04
22389;BME280;11362;48.102;11.620;2023-05-19T06:59:26;95566.91;;;22.60;45.36
22389;BME280;11362;48.102;11.620;2023-05-19T07:01:52;95572.81;;;22.62;45.15
22389;BME280;11362;48.102;11.620;2023-05-19T07:04:17;95551.47;;;22.59;44.93
22389;BME280;11362;48.102;11.620;2023-05-19T07:06:42;95559.78;;;22.59;44.90
22389;BME280;11362;48.102;11.620;2023-05-19T07:09:08;95558.59;;;22.60;45.03
22389;BME280;11362;48.102;11.620;2023-05-19T07:11:33;95557.78;;;22.63;45.08
22389;BME280;11362;48.102;11.620;2023-05-19T07:13:58;95555.41;;;22.65;45.22
22389;BME280;11362;48.102;11.620;2023-05-19T07:16:24;95550.63;;;22.65;44.74
22389;BME280;11362;48.102;11.620;2023-05-19T07:18:49;95570.44;;;22.64;44.83
22389;BME280;11362;48.102;11.620;2023-05-19T07:21:14;95567.69;;;22.64;45.08
22389;BME280;11362;48.102;11.620;2023-05-19T07:23:40;95569.63;;;22.67;45.06
22389;BME280;11362;48.102;11.620;2023-05-19T07:26:05;95572.41;;;22.67;44.97
22389;BME280;11362;48.102;11.620;2023-05-19T07:28:30;95570.44;;;22.67;45.03
22389;BME280;11362;48.102;11.620;2023-05-19T07:30:56;95568.03;;;22.69;45.22
22389;BME280;11362;48.102;11.620;2023-05-19T07:33:21;95569.22;;;22.72;45.03
22389;BME280;11362;48.102;11.620;2023-05-19T07:35:46;95569.59;;;22.74;44.86
22389;BME280;11362;48.102;11.620;2023-05-19T07:38:12;95573.16;;;22.74;44.96
22389;BME280;11362;48.102;11.620;2023-05-19T07:40:37;95575.13;;;22.74;45.08
22389;BME280;11362;48.102;11.620;2023-05-19T07:43:03;95570.38;;;22.74;44.96
22389;BME280;11362;48.102;11.620;2023-05-19T07:45:28;95563.25;;;22.77;45.05
22389;BME280;11362;48.102;11.620;2023-05-19T07:47:53;95564.00;;;22.81;44.78
22389;BME280;11362;48.102;11.620;2023-05-19T07:50:19;95566.38;;;22.82;44.72
22389;BME280;11362;48.102;11.620;2023-05-19T07:52:44;95560.88;;;22.79;44.86
22389;BME280;11362;48.102;11.620;2023-05-19T07:55:09;95559.28;;;22.78;44.88
22389;BME280;11362;48.102;11.620;2023-05-19T07:57:35;95559.28;;;22.78;44.87
22389;BME280;11362;48.102;11.620;2023-05-19T08:00:00;95565.59;;;22.78;44.90
22389;BME280;11362;48.102;11.620;2023-05-19T08:02:25;95562.06;;;22.78;44.70
22389;BME280;11362;48.102;11.620;2023-05-19T08:04:50;95566.41;;;22.75;44.85
22389;BME280;11362;48.102;11.620;2023-05-19T08:07:16;95565.63;;;22.75;44.96
22389;BME280;11362;48.102;11.620;2023-05-19T08:09:41;95564.84;;;22.74;45.00
22389;BME280;11362;48.102;11.620;2023-05-19T08:12:06;95561.28;;;22.70;45.00
22389;BME280;11362;48.102;11.620;2023-05-19T08:14:32;95566.84;;;22.70;44.92
22389;BME280;11362;48.102;11.620;2023-05-19T08:16:57;95564.47;;;22.69;44.73
22389;BME280;11362;48.102;11.620;2023-05-19T08:19:22;95564.88;;;22.67;44.55
22389;BME280;11362;48.102;11.620;2023-05-19T08:21:48;95519.00;;;22.66;44.66
22389;BME280;11362;48.102;11.620;2023-05-19T08:24:13;95511.09;;;22.65;44.77
22389;BME280;11362;48.102;11.620;2023-05-19T08:26:38;95555.41;;;22.65;44.65
22389;BME280;11362;48.102;11.620;2023-05-19T08:29:03;95567.28;;;22.62;44.27
22389;BME280;11362;48.102;11.620;2023-05-19T08:31:29;95511.16;;;22.58;44.40
22389;BME280;11362;48.102;11.620;2023-05-19T08:33:54;95523.41;;;22.57;44.18
22389;BME280;11362;48.102;11.620;2023-05-19T08:36:19;95521.03;;;22.55;44.05
22389;BME280;11362;48.102;11.620;2023-05-19T08:38:45;95579.97;;;22.56;43.92
22389;BME280;11362;48.102;11.620;2023-05-19T08:41:10;95577.59;;;22.54;43.63
22389;BME280;11362;48.102;11.620;2023-05-19T08:43:35;95572.84;;;22.55;43.35
22389;BME280;11362;48.102;11.620;2023-05-19T08:46:02;95543.59;;;22.54;43.54
22389;BME280;11362;48.102;11.620;2023-05-19T08:48:28;95540.81;;;22.54;43.61
22389;BME280;11362;48.102;11.620;2023-05-19T08:51:01;95558.63;;;22.53;43.52
22389;BME280;11362;48.102;11.620;2023-05-19T08:53:35;95564.16;;;22.53;43.44
22389;BME280;11362;48.102;11.620;2023-05-19T08:56:13;95555.09;;;22.52;43.53
22389;BME280;11362;48.102;11.620;2023-05-19T08:58:40;95564.16;;;22.53;43.54
22389;BME280;11362;48.102;11.620;2023-05-19T09:01:09;95558.63;;;22.53;43.15
22389;BME280;11362;48.102;11.620;2023-05-19T09:03:37;95555.84;;;22.53;43.43
22389;BME280;11362;48.102;11.620;2023-05-19T09:06:06;95553.88;;;22.53;43.48
22389;BME280;11362;48.102;11.620;2023-05-19T09:08:32;95548.75;;;22.52;43.47
22389;BME280;11362;48.102;11.620;2023-05-19T09:10:57;95547.94;;;22.55;43.46
22389;BME280;11362;48.102;11.620;2023-05-19T09:13:23;95551.88;;;22.54;43.40
22389;BME280;11362;48.102;11.620;2023-05-19T09:15:49;95553.09;;;22.53;43.55
22389;BME280;11362;48.102;11.620;2023-05-19T09:18:14;95552.31;;;22.52;43.45
22389;BME280;11362;48.102;11.620;2023-05-19T09:20:41;95553.09;;;22.53;43.52
22389;BME280;11362;48.102;11.620;2023-05-19T09:23:12;95548.38;;;22.50;43.47
22389;BME280;11362;48.102;11.620;2023-05-19T09:25:45;95552.31;;;22.52;43.47
22389;BME280;11362;48.102;11.620;2023-05-19T09:28:11;95551.13;;;22.53;43.31
22389;BME280;11362;48.102;11.620;2023-05-19T09:30:36;95545.97;;;22.52;43.45
22389;BME280;11362;48.102;11.620;2023-05-19T09:33:01;95544.41;;;22.51;43.45
22389;BME280;11362;48.102;11.620;2023-05-19T09:35:27;95551.50;;;22.52;43.49
22389;BME280;11362;48.102;11.620;2023-05-19T09:37:53;95545.97;;;22.52;43.31
22389;BME280;11362;48.102;11.620;2023-05-19T09:40:19;95540.44;;;22.52;43.41
22389;BME280;11362;48.102;11.620;2023-05-19T09:42:44;95540.44;;;22.52;43.22
22389;BME280;11362;48.102;11.620;2023-05-19T09:45:09;95544.00;;;22.52;43.43
22389;BME280;11362;48.102;11.620;2023-05-19T09:47:39;95544.78;;;22.53;43.30
22389;BME280;11362;48.102;11.620;2023-05-19T09:50:07;95544.41;;;22.51;43.27
22389;BME280;11362;48.102;11.620;2023-05-19T09:52:39;95541.63;;;22.51;43.23
22389;BME280;11362;48.102;11.620;2023-05-19T09:55:11;95538.06;;;22.50;43.34
22389;BME280;11362;48.102;11.620;2023-05-19T09:57:38;95535.72;;;22.49;43.31
22389;BME280;11362;48.102;11.620;2023-05-19T10:00:05;95545.59;;;22.50;43.35
22389;BME280;11362;48.102;11.620;2023-05-19T10:02:31;95545.22;;;22.48;43.38
22389;BME280;11362;48.102;11.620;2023-05-19T10:04:57;95542.44;;;22.48;43.41
22389;BME280;11362;48.102;11.620;2023-05-19T10:07:23;95534.16;;;22.48;43.30
22389;BME280;11362;48.102;11.620;2023-05-19T10:09:48;95538.50;;;22.49;43.27
22389;BME280;11362;48.102;11.620;2023-05-19T10:12:15;95537.28;;;22.50;43.27
22389;BME280;11362;48.102;11.620;2023-05-19T10:14:41;95535.72;;;22.49;43.37
22389;BME280;11362;48.102;11.620;2023-05-19T10:17:06;95537.69;;;22.48;43.21
22389;BME280;11362;48.102;11.620;2023-05-19T10:19:34;95537.31;;;22.46;43.36
22389;BME280;11362;48.102;11.620;2023-05-19T10:22:00;95539.69;;;22.48;43.21
22389;BME280;11362;48.102;11.620;2023-05-19T10:24:25;95540.47;;;22.48;43.31
22389;BME280;11362;48.102;11.620;2023-05-19T10:26:55;95545.59;;;22.50;43.13
22389;BME280;11362;48.102;11.620;2023-05-19T10:29:24;95535.72;;;22.49;43.16
22389;BME280;11362;48.102;11.620;2023-05-19T10:31:52;95542.03;;;22.49;43.10
22389;BME280;11362;48.102;11.620;2023-05-19T10:34:22;95540.84;;;22.50;43.15
22389;BME280;11362;48.102;11.620;2023-05-19T10:37:07;95542.03;;;22.49;43.16
22389;BME280;11362;48.102;11.620;2023-05-19T10:39:40;95530.19;;;22.49;43.07
22389;BME280;11362;48.102;11.620;2023-05-19T10:45:08;95528.19;;;22.49;43.06
22389;BME280;11362;48.102;11.620;2023-05-19T10:47:39;95529.38;;;22.48;43.00
22389;BME280;11362;48.102;11.620;2023-05-19T10:50:06;95528.19;;;22.49;42.98
22389;BME280;11362;48.102;11.620;2023-05-19T10:52:35;95527.78;;;22.51;43.16
22389;BME280;11362;48.102;11.620;2023-05-19T10:55:01;95516.75;;;22.47;43.01
22389;BME280;11362;48.102;11.620;2023-05-19T10:57:26;95523.06;;;22.48;43.09
22389;BME280;11362;48.102;11.620;2023-05-19T10:59:54;95525.84;;;22.48;43.12
22389;BME280;11362;48.102;11.620;2023-05-19T11:05:06;95527.00;;;22.47;42.95
22389;BME280;11362;48.102;11.620;2023-05-19T11:07:32;95529.78;;;22.47;43.17
22389;BME280;11362;48.102;11.620;2023-05-19T11:09:58;95532.53;;;22.47;43.14
22389;BME280;11362;48.102;11.620;2023-05-19T11:12:23;95525.03;;;22.47;43.02
22389;BME280;11362;48.102;11.620;2023-05-19T11:14:53;95528.63;;;22.48;42.89
22389;BME280;11362;48.102;11.620;2023-05-19T11:17:19;95517.53;;;22.48;42.93
22389;BME280;11362;48.102;11.620;2023-05-19T11:19:53;95523.06;;;22.48;42.76
22389;BME280;11362;48.102;11.620;2023-05-19T11:22:22;95518.72;;;22.47;42.93
22389;BME280;11362;48.102;11.620;2023-05-19T11:24:47;95515.53;;;22.48;42.93
22389;BME280;11362;48.102;11.620;2023-05-19T11:27:33;95514.34;;;22.49;43.04
22389;BME280;11362;48.102;11.620;2023-05-19T11:30:08;95513.94;;;22.51;42.60
22389;BME280;11362;48.102;11.620;2023-05-19T11:32:34;95513.94;;;22.51;42.79
22389;BME280;11362;48.102;11.620;2023-05-19T11:35:01;95513.94;;;22.51;42.92
22389;BME280;11362;48.102;11.620;2023-05-19T11:37:27;95512.38;;;22.50;42.71
22389;BME280;11362;48.102;11.620;2023-05-19T11:39:56;95522.25;;;22.51;42.73
22389;BME280;11362;48.102;11.620;2023-05-19T11:42:22;95517.50;;;22.51;42.63
22389;BME280;11362;48.102;11.620;2023-05-19T11:44:47;95522.25;;;22.51;42.67
22389;BME280;11362;48.102;11.620;2023-05-19T11:47:14;95524.22;;;22.50;42.75
22389;BME280;11362;48.102;11.620;2023-05-19T11:49:43;95521.88;;;22.49;42.76
22389;BME280;11362;48.102;11.620;2023-05-19T11:52:09;95523.84;;;22.48;42.76
22389;BME280;11362;48.102;11.620;2023-05-19T11:54:34;95504.06;;;22.50;42.62
22389;BME280;11362;48.102;11.620;2023-05-19T11:57:01;95505.66;;;22.51;42.58
22389;BME280;11362;48.102;11.620;2023-05-19T11:59:33;95523.84;;;22.52;42.60
22389;BME280;11362;48.102;11.620;2023-05-19T12:02:18;95525.78;;;22.51;42.70
22389;BME280;11362;48.102;11.620;2023-05-19T12:04:45;95530.56;;;22.51;42.61
22389;BME280;11362;48.102;11.620;2023-05-19T12:07:11;95527.41;;;22.49;42.44
22389;BME280;11362;48.102;11.620;2023-05-19T12:09:37;95526.22;;;22.50;42.58
22389;BME280;11362;48.102;11.620;2023-05-19T12:12:02;95531.38;;;22.48;42.58
22389;BME280;11362;48.102;11.620;2023-05-19T12:14:29;95523.06;;;22.48;42.71
22389;BME280;11362;48.102;11.620;2023-05-19T12:16:55;95519.91;;;22.46;42.44
22389;BME280;11362;48.102;11.620;2023-05-19T12:19:23;95523.47;;;22.46;42.72
22389;BME280;11362;48.102;11.620;2023-05-19T12:21:49;95521.47;;;22.47;42.59
22389;BME280;11362;48.102;11.620;2023-05-19T12:24:14;95530.97;;;22.46;42.52
22389;BME280;11362;48.102;11.620;2023-05-19T12:26:40;95534.16;;;22.48;42.72
22389;BME280;11362;48.102;11.620;2023-05-19T12:29:05;95524.66;;;22.49;42.81
22389;BME280;11362;48.102;11.620;2023-05-19T12:31:31;95519.88;;;22.49;42.80
22389;BME280;11362;48.102;11.620;2023-05-19T12:33:57;95505.66;;;22.51;42.70
22389;BME280;11362;48.102;11.620;2023-05-19T12:36:23;95502.47;;;22.52;43.05
22389;BME280;11362;48.102;11.620;2023-05-19T12:38:52;95504.81;;;22.54;43.29
22389;BME280;11362;48.102;11.620;2023-05-19T12:41:18;95497.31;;;22.54;43.68
22389;BME280;11362;48.102;11.620;2023-05-19T12:43:43;95523.81;;;22.55;43.60
22389;BME280;11362;48.102;11.620;2023-05-19T12:46:12;95511.94;;;22.55;43.80
22389;BME280;11362;48.102;11.620;2023-05-19T12:48:42;95517.47;;;22.55;43.73
22389;BME280;11362;48.102;11.620;2023-05-19T12:51:07;95518.28;;;22.55;43.88
22389;BME280;11362;48.102;11.620;2023-05-19T12:53:32;95518.66;;;22.57;44.11
22389;BME280;11362;48.102;11.620;2023-05-19T12:55:57;95532.91;;;22.59;44.33
22389;BME280;11362;48.102;11.620;2023-05-19T12:58:23;95530.88;;;22.63;44.92
22389;BME280;11362;48.102;11.620;2023-05-19T13:00:48;95532.06;;;22.66;45.21
22389;BME280;11362;48.102;11.620;2023-05-19T13:03:15;95526.88;;;22.68;45.82
22389;BME280;11362;48.102;11.620;2023-05-19T13:05:44;95533.22;;;22.72;46.30